createdAt,value
2023-02-19T00:00:36.627Z,15.7
2023-02-19T00:01:52.607Z,15.7
2023-02-19T00:03:09.011Z,15.7
2023-02-19T00:04:25.204Z,15.7
2023-02-19T00:05:41.391Z,15.7
2023-02-19T00:06:57.577Z,15.7
2023-02-19T00:08:13.763Z,15.7
2023-02-19T00:09:29.965Z,15.7
2023-02-19T00:10:46.150Z,15.7
2023-02-19T00:12:02.118Z,15.7
2023-02-19T00:13:17.319Z,15.7
2023-02-19T00:14:33.740Z,15.7
2023-02-19T00:15:49.704Z,15.7
2023-02-19T00:17:06.118Z,15.7
2023-02-19T00:18:22.296Z,15.7
2023-02-19T00:19:38.488Z,15.7
2023-02-19T00:20:54.464Z,15.7
2023-02-19T00:22:09.682Z,15.7
2023-02-19T00:23:25.098Z,15.7
2023-02-19T00:24:41.282Z,15.7
2023-02-19T00:25:57.471Z,15.7
2023-02-19T00:27:13.439Z,15.7
2023-02-19T00:28:29.864Z,15.7
2023-02-19T00:29:46.043Z,15.7
2023-02-19T00:31:02.010Z,15.7
2023-02-19T00:32:18.419Z,15.6
2023-02-19T00:33:34.382Z,15.7
2023-02-19T00:34:50.807Z,15.7
2023-02-19T00:36:06.777Z,15.7
2023-02-19T00:37:23.173Z,15.7
2023-02-19T00:38:39.376Z,15.7
2023-02-19T00:39:54.346Z,15.7
2023-02-19T00:41:10.549Z,15.7
2023-02-19T00:42:26.964Z,15.7
2023-02-19T00:43:42.912Z,15.7
2023-02-19T00:44:59.330Z,15.7
2023-02-19T00:46:15.520Z,15.6
2023-02-19T00:47:31.708Z,15.7
2023-02-19T00:48:46.706Z,15.6
2023-02-19T00:50:02.152Z,15.6
2023-02-19T00:51:18.326Z,15.7
2023-02-19T00:52:34.286Z,15.6
2023-02-19T00:53:50.477Z,15.6
2023-02-19T00:55:06.900Z,15.6
2023-02-19T00:56:23.080Z,15.6
2023-02-19T00:57:39.045Z,15.6
2023-02-19T00:58:55.456Z,15.6
2023-02-19T01:00:11.643Z,15.7
2023-02-19T01:01:27.836Z,15.6
2023-02-19T01:02:43.804Z,15.6
2023-02-19T01:04:00.212Z,15.7
2023-02-19T01:05:16.178Z,15.6
2023-02-19T01:06:31.376Z,15.7
2023-02-19T01:07:47.810Z,15.6
2023-02-19T01:09:03.766Z,15.6
2023-02-19T01:10:20.174Z,15.6
2023-02-19T01:11:36.370Z,15.6
2023-02-19T01:12:52.320Z,15.6
2023-02-19T01:14:08.512Z,15.6
2023-02-19T01:15:23.969Z,15.6
2023-02-19T01:16:39.163Z,15.6
2023-02-19T01:17:54.154Z,15.6
2023-02-19T01:19:10.691Z,15.6
2023-02-19T01:20:26.655Z,15.6
2023-02-19T01:21:43.075Z,15.6
2023-02-19T01:22:59.269Z,15.6
2023-02-19T01:24:15.446Z,15.6
2023-02-19T01:25:31.653Z,15.6
2023-02-19T01:26:47.831Z,15.6
2023-02-19T01:28:04.030Z,15.6
2023-02-19T01:29:20.217Z,15.6
2023-02-19T01:30:36.163Z,15.6
2023-02-19T01:31:52.582Z,15.6
2023-02-19T01:33:08.782Z,15.6
2023-02-19T01:34:24.000Z,15.6
2023-02-19T01:35:40.166Z,15.6
2023-02-19T01:36:56.125Z,15.6
2023-02-19T01:38:12.551Z,15.6
2023-02-19T01:39:28.508Z,15.6
2023-02-19T01:40:44.938Z,15.6
2023-02-19T01:42:01.128Z,15.6
2023-02-19T01:43:17.311Z,15.6
2023-02-19T01:44:32.524Z,15.6
2023-02-19T01:45:47.734Z,15.6
2023-02-19T01:47:02.955Z,15.6
2023-02-19T01:48:18.159Z,15.7
2023-02-19T01:49:34.102Z,15.6
2023-02-19T01:50:50.289Z,15.6
2023-02-19T01:52:06.487Z,15.6
2023-02-19T01:53:22.907Z,15.6
2023-02-19T01:54:39.093Z,15.6
2023-02-19T01:55:55.043Z,15.6
2023-02-19T01:57:11.479Z,15.6
2023-02-19T01:58:27.667Z,15.6
2023-02-19T01:59:43.613Z,15.6
2023-02-19T02:01:00.055Z,15.6
2023-02-19T02:02:16.238Z,15.6
2023-02-19T02:03:32.417Z,15.6
2023-02-19T02:04:47.391Z,15.6
2023-02-19T02:06:03.571Z,15.6
2023-02-19T02:07:19.766Z,15.6
2023-02-19T02:08:35.954Z,15.6
2023-02-19T02:09:52.381Z,15.6
2023-02-19T02:11:08.578Z,15.6
2023-02-19T02:12:24.517Z,15.6
2023-02-19T02:13:39.990Z,15.6
2023-02-19T02:14:54.949Z,15.6
2023-02-19T02:16:10.158Z,15.6
2023-02-19T02:17:25.604Z,15.6
2023-02-19T02:18:40.826Z,15.6
2023-02-19T02:19:56.030Z,15.6
2023-02-19T02:21:12.226Z,15.6
2023-02-19T02:22:28.159Z,15.6
2023-02-19T02:23:44.611Z,15.6
2023-02-19T02:25:00.798Z,15.6
2023-02-19T02:26:16.970Z,15.6
2023-02-19T02:27:33.163Z,15.6
2023-02-19T02:28:49.363Z,15.6
2023-02-19T02:30:05.299Z,15.6
2023-02-19T02:31:21.731Z,15.6
2023-02-19T02:32:37.917Z,15.6
2023-02-19T02:33:53.867Z,15.6
2023-02-19T02:35:10.060Z,15.6
2023-02-19T02:36:25.518Z,15.6
2023-02-19T02:37:41.691Z,15.6
2023-02-19T02:38:57.887Z,15.6
2023-02-19T02:40:14.082Z,15.6
2023-02-19T02:41:30.013Z,15.6
2023-02-19T02:42:46.206Z,15.6
2023-02-19T02:44:02.638Z,15.6
2023-02-19T02:45:17.612Z,15.6
2023-02-19T02:46:32.819Z,15.6
2023-02-19T02:47:49.258Z,15.6
2023-02-19T02:49:05.449Z,15.6
2023-02-19T02:50:20.670Z,15.6
2023-02-19T02:51:35.867Z,15.6
2023-02-19T02:52:52.051Z,15.6
2023-02-19T02:54:08.000Z,15.6
2023-02-19T02:55:24.436Z,15.6
2023-02-19T02:56:40.634Z,15.6
2023-02-19T02:57:56.809Z,15.6
2023-02-19T02:59:12.750Z,15.6
2023-02-19T03:00:28.938Z,15.6
2023-02-19T03:01:45.135Z,15.6
2023-02-19T03:03:01.581Z,15.6
2023-02-19T03:04:17.751Z,15.6
2023-02-19T03:05:33.947Z,15.6
2023-02-19T03:06:50.139Z,15.6
2023-02-19T03:08:05.100Z,15.6
2023-02-19T03:09:21.537Z,15.6
2023-02-19T03:10:37.728Z,15.6
2023-02-19T03:11:53.662Z,15.6
2023-02-19T03:13:09.836Z,15.6
2023-02-19T03:14:26.296Z,15.6
2023-02-19T03:15:42.223Z,15.5
2023-02-19T03:16:57.701Z,15.6
2023-02-19T03:18:12.894Z,15.5
2023-02-19T03:19:28.826Z,15.5
2023-02-19T03:20:45.289Z,15.6
2023-02-19T03:22:01.474Z,15.6
2023-02-19T03:23:17.408Z,15.6
2023-02-19T03:24:33.853Z,15.6
2023-02-19T03:25:50.029Z,15.5
2023-02-19T03:27:05.975Z,15.5
2023-02-19T03:28:22.423Z,15.6
2023-02-19T03:29:38.341Z,15.7
2023-02-19T03:30:54.534Z,15.7
2023-02-19T03:32:10.733Z,15.7
2023-02-19T03:33:27.165Z,15.7
2023-02-19T03:34:42.381Z,15.7
2023-02-19T03:35:58.564Z,15.7
2023-02-19T03:37:14.503Z,15.7
2023-02-19T03:38:30.692Z,15.7
2023-02-19T03:39:47.143Z,15.7
2023-02-19T03:41:03.318Z,15.7
2023-02-19T03:42:19.506Z,15.7
2023-02-19T03:43:34.726Z,15.7
2023-02-19T03:44:49.932Z,15.7
2023-02-19T03:46:05.860Z,15.7
2023-02-19T03:47:22.306Z,15.7
2023-02-19T03:48:38.496Z,15.7
2023-02-19T03:49:54.684Z,15.7
2023-02-19T03:51:10.616Z,15.7
2023-02-19T03:52:27.067Z,15.7
2023-02-19T03:53:42.991Z,15.7
2023-02-19T03:54:59.450Z,15.7
2023-02-19T03:56:15.646Z,15.7
2023-02-19T03:57:31.562Z,15.7
2023-02-19T03:58:48.009Z,15.7
2023-02-19T04:00:04.209Z,15.7
2023-02-19T04:01:19.416Z,15.7
2023-02-19T04:02:35.341Z,15.7
2023-02-19T04:03:51.801Z,15.7
2023-02-19T04:05:07.977Z,15.6
2023-02-19T04:06:24.175Z,15.7
2023-02-19T04:07:40.363Z,15.7
2023-02-19T04:08:56.280Z,15.7
2023-02-19T04:10:11.762Z,15.7
2023-02-19T04:11:26.984Z,15.7
2023-02-19T04:12:42.192Z,15.7
2023-02-19T04:13:57.402Z,15.7
2023-02-19T04:15:12.353Z,15.7
2023-02-19T04:16:27.561Z,15.7
2023-02-19T04:17:44.013Z,15.6
2023-02-19T04:19:00.210Z,15.6
2023-02-19T04:20:16.385Z,15.6
2023-02-19T04:21:32.584Z,15.6
2023-02-19T04:22:48.771Z,15.6
2023-02-19T04:24:04.691Z,15.6
2023-02-19T04:25:21.153Z,15.6
2023-02-19T04:26:37.344Z,15.6
2023-02-19T04:27:53.243Z,15.6
2023-02-19T04:29:09.722Z,15.6
2023-02-19T04:30:25.903Z,15.6
2023-02-19T04:31:41.829Z,15.6
2023-02-19T04:32:57.308Z,15.6
2023-02-19T04:34:13.495Z,15.6
2023-02-19T04:35:29.402Z,15.6
2023-02-19T04:36:45.874Z,15.6
2023-02-19T04:38:02.051Z,15.6
2023-02-19T04:39:17.974Z,15.6
2023-02-19T04:40:34.149Z,15.6
2023-02-19T04:41:49.650Z,15.6
2023-02-19T04:43:05.954Z,15.6
2023-02-19T04:44:20.898Z,15.6
2023-02-19T04:45:36.387Z,15.6
2023-02-19T04:46:52.295Z,15.6
2023-02-19T04:48:08.760Z,15.6
2023-02-19T04:49:24.960Z,15.6
2023-02-19T04:50:40.871Z,15.6
2023-02-19T04:51:57.326Z,15.5
2023-02-19T04:53:13.247Z,15.5
2023-02-19T04:54:29.422Z,15.6
2023-02-19T04:55:45.887Z,15.5
2023-02-19T04:57:02.095Z,15.5
2023-02-19T04:58:18.268Z,15.5
2023-02-19T04:59:34.474Z,15.5
2023-02-19T05:00:50.381Z,15.5
2023-02-19T05:02:05.581Z,15.5
2023-02-19T05:03:22.039Z,15.5
2023-02-19T05:04:38.240Z,15.5
2023-02-19T05:05:54.137Z,15.5
2023-02-19T05:07:10.611Z,15.5
2023-02-19T05:08:26.811Z,15.5
2023-02-19T05:09:42.993Z,15.5
2023-02-19T05:10:58.215Z,15.5
2023-02-19T05:12:13.142Z,15.5
2023-02-19T05:13:28.358Z,15.5
2023-02-19T05:14:43.835Z,15.5
2023-02-19T05:16:00.024Z,15.5
2023-02-19T05:17:15.941Z,15.5
2023-02-19T05:18:32.133Z,15.5
2023-02-19T05:19:48.594Z,15.5
2023-02-19T05:21:04.793Z,15.5
2023-02-19T05:22:20.976Z,15.5
2023-02-19T05:23:37.170Z,15.5
2023-02-19T05:24:53.077Z,15.5
2023-02-19T05:26:09.541Z,15.5
2023-02-19T05:27:25.455Z,15.5
2023-02-19T05:28:41.919Z,15.5
2023-02-19T05:29:58.106Z,15.5
2023-02-19T05:31:13.028Z,15.5
2023-02-19T05:32:29.218Z,15.5
2023-02-19T05:33:45.697Z,15.5
2023-02-19T05:35:01.892Z,15.5
2023-02-19T05:36:18.076Z,15.5
2023-02-19T05:37:34.270Z,15.5
2023-02-19T05:38:50.163Z,15.5
2023-02-19T05:40:05.382Z,15.5
2023-02-19T05:41:20.878Z,15.5
2023-02-19T05:42:37.055Z,15.5
2023-02-19T05:43:53.251Z,15.5
2023-02-19T05:45:09.449Z,15.4
2023-02-19T05:46:25.631Z,15.4
2023-02-19T05:47:41.530Z,15.4
2023-02-19T05:48:58.003Z,15.5
2023-02-19T05:50:14.194Z,15.4
2023-02-19T05:51:30.391Z,15.5
2023-02-19T05:52:46.573Z,15.4
2023-02-19T05:54:02.470Z,15.4
2023-02-19T05:55:18.653Z,15.4
2023-02-19T05:56:34.858Z,15.4
2023-02-19T05:57:50.346Z,15.4
2023-02-19T05:59:06.527Z,15.4
2023-02-19T06:00:22.710Z,15.4
2023-02-19T06:01:38.904Z,15.4
2023-02-19T06:02:54.805Z,15.4
2023-02-19T06:04:10.995Z,15.4
2023-02-19T06:05:27.476Z,15.4
2023-02-19T06:06:42.674Z,15.4
2023-02-19T06:07:57.583Z,15.4
2023-02-19T06:09:13.771Z,15.4
2023-02-19T06:10:29.961Z,15.4
2023-02-19T06:11:46.449Z,15.4
2023-02-19T06:13:02.628Z,15.4
2023-02-19T06:14:18.820Z,15.4
2023-02-19T06:15:34.717Z,15.4
2023-02-19T06:16:50.894Z,15.4
2023-02-19T06:18:07.380Z,15.4
2023-02-19T06:19:23.577Z,15.4
2023-02-19T06:20:39.772Z,15.4
2023-02-19T06:21:55.662Z,15.4
2023-02-19T06:23:12.136Z,15.4
2023-02-19T06:24:27.053Z,15.4
2023-02-19T06:25:43.524Z,15.4
2023-02-19T06:26:59.724Z,15.4
2023-02-19T06:28:15.906Z,15.4
2023-02-19T06:29:32.087Z,15.4
2023-02-19T06:30:47.984Z,15.5
2023-02-19T06:32:04.474Z,15.4
2023-02-19T06:33:19.673Z,15.4
2023-02-19T06:34:34.884Z,15.4
2023-02-19T06:35:50.102Z,15.4
2023-02-19T06:37:05.303Z,15.5
2023-02-19T06:38:21.477Z,15.5
2023-02-19T06:39:37.672Z,15.5
2023-02-19T06:40:53.558Z,15.5
2023-02-19T06:42:09.742Z,15.4
2023-02-19T06:43:25.946Z,15.5
2023-02-19T06:44:42.114Z,15.5
2023-02-19T06:45:58.307Z,15.5
2023-02-19T06:47:14.505Z,15.5
2023-02-19T06:48:30.993Z,15.5
2023-02-19T06:49:47.169Z,15.5
2023-02-19T06:51:03.361Z,15.5
2023-02-19T06:52:19.247Z,15.5
2023-02-19T06:53:34.459Z,15.5
2023-02-19T06:54:50.633Z,15.5
2023-02-19T06:56:07.126Z,15.5
2023-02-19T06:57:23.313Z,15.5
2023-02-19T06:58:39.506Z,15.5
2023-02-19T06:59:55.689Z,15.5
2023-02-19T07:01:11.579Z,15.5
2023-02-19T07:02:26.779Z,15.5
2023-02-19T07:03:41.981Z,15.5
2023-02-19T07:04:57.508Z,15.5
2023-02-19T07:06:12.403Z,15.5
2023-02-19T07:07:27.919Z,15.5
2023-02-19T07:08:42.819Z,15.5
2023-02-19T07:09:59.326Z,15.5
2023-02-19T07:11:15.199Z,15.5
2023-02-19T07:12:31.394Z,15.5
2023-02-19T07:13:47.883Z,15.6
2023-02-19T07:15:03.752Z,15.5
2023-02-19T07:16:19.942Z,15.5
2023-02-19T07:17:36.440Z,15.6
2023-02-19T07:18:52.634Z,15.5
2023-02-19T07:20:08.827Z,15.6
2023-02-19T07:21:25.004Z,15.6
2023-02-19T07:22:41.197Z,15.6
2023-02-19T07:23:57.374Z,15.5
2023-02-19T07:25:13.382Z,15.6
2023-02-19T07:26:29.567Z,15.6
2023-02-19T07:27:46.056Z,15.6
2023-02-19T07:29:02.250Z,15.6
2023-02-19T07:30:18.447Z,15.6
2023-02-19T07:31:34.620Z,15.6
2023-02-19T07:32:50.502Z,15.6
2023-02-19T07:34:05.726Z,15.6
2023-02-19T07:35:21.237Z,15.6
2023-02-19T07:36:36.443Z,15.6
2023-02-19T07:37:51.340Z,15.6
2023-02-19T07:39:06.859Z,15.6
2023-02-19T07:40:22.065Z,15.6
2023-02-19T07:41:37.932Z,15.6
2023-02-19T07:42:54.125Z,15.6
2023-02-19T07:44:10.632Z,15.6
2023-02-19T07:45:26.817Z,15.6
2023-02-19T07:46:42.688Z,15.6
2023-02-19T07:47:59.183Z,15.6
2023-02-19T07:49:15.061Z,15.6
2023-02-19T07:50:31.569Z,15.6
2023-02-19T07:51:47.761Z,15.6
2023-02-19T07:53:03.939Z,15.6
2023-02-19T07:54:20.124Z,15.6
2023-02-19T07:55:36.323Z,15.6
2023-02-19T07:56:51.208Z,15.6
2023-02-19T07:58:07.697Z,15.6
2023-02-19T07:59:23.896Z,15.6
2023-02-19T08:00:40.087Z,15.6
2023-02-19T08:01:56.275Z,15.7
2023-02-19T08:03:12.148Z,15.7
2023-02-19T08:04:28.324Z,15.7
2023-02-19T08:05:43.856Z,15.6
2023-02-19T08:06:59.056Z,15.7
2023-02-19T08:08:14.272Z,15.6
2023-02-19T08:09:29.167Z,15.7
2023-02-19T08:10:45.344Z,15.7
2023-02-19T08:12:01.540Z,15.7
2023-02-19T08:13:18.035Z,15.7
2023-02-19T08:14:34.236Z,15.7
2023-02-19T08:15:50.104Z,15.7
2023-02-19T08:17:06.604Z,15.7
2023-02-19T08:18:22.788Z,15.7
2023-02-19T08:19:38.661Z,15.7
2023-02-19T08:20:55.168Z,15.7
2023-02-19T08:22:11.041Z,15.7
2023-02-19T08:23:27.220Z,15.7
2023-02-19T08:24:43.729Z,15.7
2023-02-19T08:25:58.939Z,15.7
2023-02-19T08:27:14.808Z,15.7
2023-02-19T08:28:30.997Z,15.7
2023-02-19T08:29:47.504Z,15.7
2023-02-19T08:31:03.682Z,15.7
2023-02-19T08:32:19.562Z,15.7
2023-02-19T08:33:36.069Z,15.7
2023-02-19T08:34:51.281Z,15.7
2023-02-19T08:36:06.472Z,15.7
2023-02-19T08:37:22.661Z,15.7
2023-02-19T08:38:38.858Z,15.7
2023-02-19T08:39:54.724Z,15.7
2023-02-19T08:41:11.235Z,15.7
2023-02-19T08:42:27.094Z,15.7
2023-02-19T08:43:43.603Z,15.7
2023-02-19T08:44:59.787Z,15.7
2023-02-19T08:46:15.972Z,15.7
2023-02-19T08:47:32.177Z,15.7
2023-02-19T08:48:48.365Z,15.7
2023-02-19T08:50:04.547Z,15.8
2023-02-19T08:51:20.415Z,15.7
2023-02-19T08:52:35.937Z,15.7
2023-02-19T08:53:51.790Z,15.7
2023-02-19T08:55:08.303Z,15.8
2023-02-19T08:56:24.497Z,15.8
2023-02-19T08:57:40.366Z,15.8
2023-02-19T08:58:56.882Z,15.8
2023-02-19T09:00:13.060Z,15.8
2023-02-19T09:01:27.953Z,15.8
2023-02-19T09:02:43.480Z,15.8
2023-02-19T09:03:58.356Z,15.8
2023-02-19T09:05:13.559Z,15.8
2023-02-19T09:06:28.781Z,15.8
2023-02-19T09:07:43.989Z,15.8
2023-02-19T09:09:00.497Z,15.8
2023-02-19T09:10:15.375Z,15.8
2023-02-19T09:11:30.913Z,15.9
2023-02-19T09:12:47.116Z,15.9
2023-02-19T09:14:03.291Z,15.9
2023-02-19T09:15:19.480Z,15.9
2023-02-19T09:16:35.658Z,15.9
2023-02-19T09:17:51.866Z,15.9
2023-02-19T09:19:07.704Z,15.9
2023-02-19T09:20:23.893Z,15.9
2023-02-19T09:21:40.421Z,15.9
2023-02-19T09:22:56.600Z,15.9
2023-02-19T09:24:12.796Z,15.8
2023-02-19T09:25:28.984Z,15.9
2023-02-19T09:26:44.827Z,15.9
2023-02-19T09:28:00.038Z,15.9
2023-02-19T09:29:16.219Z,15.9
2023-02-19T09:30:32.423Z,15.9
2023-02-19T09:31:48.608Z,15.9
2023-02-19T09:33:04.788Z,15.9
2023-02-19T09:34:21.311Z,15.9
2023-02-19T09:35:37.172Z,15.9
2023-02-19T09:36:52.714Z,15.9
2023-02-19T09:38:07.914Z,15.9
2023-02-19T09:39:23.769Z,15.9
2023-02-19T09:40:38.974Z,15.9
2023-02-19T09:41:54.185Z,16
2023-02-19T09:43:10.369Z,16
2023-02-19T09:44:26.567Z,16.1
2023-02-19T09:45:43.091Z,16.1
2023-02-19T09:46:58.942Z,16.1
2023-02-19T09:48:15.118Z,16.1
2023-02-19T09:49:31.640Z,16
2023-02-19T09:50:47.485Z,16
2023-02-19T09:52:04.013Z,16
2023-02-19T09:53:19.860Z,16.1
2023-02-19T09:54:36.401Z,16.1
2023-02-19T09:55:52.587Z,16.1
2023-02-19T09:57:08.767Z,16.1
2023-02-19T09:58:23.630Z,16.1
2023-02-19T09:59:40.166Z,16.1
2023-02-19T10:00:56.343Z,16.1
2023-02-19T10:02:12.547Z,16.2
2023-02-19T10:03:28.382Z,16.2
2023-02-19T10:04:44.908Z,16.1
2023-02-19T10:06:00.759Z,16.1
2023-02-19T10:07:16.310Z,16.1
2023-02-19T10:08:31.515Z,16.1
2023-02-19T10:09:46.741Z,16.2
2023-02-19T10:11:01.584Z,16.3
2023-02-19T10:12:18.119Z,16.4
2023-02-19T10:13:34.304Z,16.4
2023-02-19T10:14:50.505Z,16.4
2023-02-19T10:16:06.681Z,16.3
2023-02-19T10:17:22.878Z,16.3
2023-02-19T10:18:39.063Z,16.2
2023-02-19T10:19:54.908Z,16.2
2023-02-19T10:21:11.432Z,16.2
2023-02-19T10:22:27.282Z,16.3
2023-02-19T10:23:43.809Z,16.4
2023-02-19T10:24:59.991Z,16.5
2023-02-19T10:26:16.180Z,16.5
2023-02-19T10:27:31.397Z,16.6
2023-02-19T10:28:47.238Z,16.6
2023-02-19T10:30:03.769Z,16.6
2023-02-19T10:31:19.964Z,16.6
2023-02-19T10:32:36.142Z,16.5
2023-02-19T10:33:52.332Z,16.6
2023-02-19T10:35:08.161Z,16.6
2023-02-19T10:36:23.720Z,16.6
2023-02-19T10:37:38.940Z,16.7
2023-02-19T10:38:54.778Z,16.7
2023-02-19T10:40:11.306Z,16.6
2023-02-19T10:41:27.145Z,16.6
2023-02-19T10:42:43.681Z,16.8
2023-02-19T10:43:59.514Z,16.7
2023-02-19T10:45:16.056Z,16.9
2023-02-19T10:46:32.249Z,16.8
2023-02-19T10:47:48.085Z,16.7
2023-02-19T10:49:04.626Z,16.7
2023-02-19T10:50:20.817Z,16.6
2023-02-19T10:51:36.652Z,16.8
2023-02-19T10:52:53.179Z,17.1
2023-02-19T10:54:08.391Z,17.2
2023-02-19T10:55:24.219Z,17.2
2023-02-19T10:56:40.759Z,16.9
2023-02-19T10:57:56.594Z,16.7
2023-02-19T10:59:13.143Z,16.7
2023-02-19T11:00:28.960Z,16.6
2023-02-19T11:01:45.518Z,16.8
2023-02-19T11:03:00.715Z,16.8
2023-02-19T11:04:15.933Z,17
2023-02-19T11:05:31.144Z,17.2
2023-02-19T11:06:45.994Z,17.3
2023-02-19T11:08:02.186Z,17.4
2023-02-19T11:09:18.722Z,17.1
2023-02-19T11:10:34.902Z,17.2
2023-02-19T11:11:51.095Z,17.2
2023-02-19T11:13:06.929Z,17.1
2023-02-19T11:14:23.477Z,17.5
2023-02-19T11:15:39.308Z,17.4
2023-02-19T11:16:55.495Z,17.6
2023-02-19T11:18:12.027Z,17.5
2023-02-19T11:19:28.231Z,17.8
2023-02-19T11:20:44.042Z,17.7
2023-02-19T11:22:00.239Z,18
2023-02-19T11:23:15.433Z,18.2
2023-02-19T11:24:31.981Z,18.1
2023-02-19T11:25:48.170Z,18.3
2023-02-19T11:27:04.004Z,17.9
2023-02-19T11:28:20.538Z,17.7
2023-02-19T11:29:36.729Z,17.4
2023-02-19T11:30:52.923Z,17.3
2023-02-19T11:32:08.135Z,17.2
2023-02-19T11:33:23.337Z,17.4
2023-02-19T11:34:38.563Z,17.9
2023-02-19T11:35:53.394Z,18.3
2023-02-19T11:37:08.618Z,18.5
2023-02-19T11:38:23.822Z,18.1
2023-02-19T11:39:40.355Z,18.4
2023-02-19T11:40:56.538Z,18.6
2023-02-19T11:42:12.725Z,18.8
2023-02-19T11:43:28.922Z,18.6
2023-02-19T11:44:44.747Z,18.4
2023-02-19T11:46:00.935Z,18.5
2023-02-19T11:47:17.495Z,18.6
2023-02-19T11:48:33.677Z,18.8
2023-02-19T11:49:49.857Z,18.9
2023-02-19T11:51:06.053Z,18.5
2023-02-19T11:52:21.873Z,18.2
2023-02-19T11:53:38.419Z,17.9
2023-02-19T11:54:53.620Z,17.7
2023-02-19T11:56:09.809Z,17.5
2023-02-19T11:57:26.002Z,17.4
2023-02-19T11:58:42.185Z,17.7
2023-02-19T11:59:58.000Z,17.7
2023-02-19T12:01:14.554Z,18.1
2023-02-19T12:02:30.750Z,18.2
2023-02-19T12:03:45.603Z,18.4
2023-02-19T12:05:01.161Z,18
2023-02-19T12:06:16.374Z,17.9
2023-02-19T12:07:31.580Z,17.7
2023-02-19T12:08:47.769Z,17.7
2023-02-19T12:10:03.962Z,17.6
2023-02-19T12:11:20.139Z,18
2023-02-19T12:12:35.964Z,17.8
2023-02-19T12:13:52.514Z,17.8
2023-02-19T12:15:08.339Z,17.7
2023-02-19T12:16:24.897Z,17.6
2023-02-19T12:17:41.083Z,17.6
2023-02-19T12:18:57.265Z,17.5
2023-02-19T12:20:13.085Z,17.4
2023-02-19T12:21:29.269Z,17.4
2023-02-19T12:22:45.829Z,17.4
2023-02-19T12:24:01.042Z,17.4
2023-02-19T12:25:17.222Z,17.4
2023-02-19T12:26:33.038Z,17.4
2023-02-19T12:27:49.601Z,17.3
2023-02-19T12:29:05.409Z,17.3
2023-02-19T12:30:21.592Z,17.2
2023-02-19T12:31:38.161Z,17.2
2023-02-19T12:32:53.003Z,17.2
2023-02-19T12:34:08.578Z,17.2
2023-02-19T12:35:23.797Z,17.2
2023-02-19T12:36:38.619Z,17.2
2023-02-19T12:37:55.174Z,17.1
2023-02-19T12:39:11.362Z,17.2
2023-02-19T12:40:26.582Z,17.4
2023-02-19T12:41:42.391Z,17.4
2023-02-19T12:42:58.948Z,17.4
2023-02-19T12:44:15.136Z,17.4
2023-02-19T12:45:30.947Z,17.4
2023-02-19T12:46:47.511Z,17.6
2023-02-19T12:48:03.697Z,17.5
2023-02-19T12:49:19.897Z,17.3
2023-02-19T12:50:36.084Z,17.3
2023-02-19T12:51:52.259Z,17.2
2023-02-19T12:53:08.073Z,17.2
2023-02-19T12:54:24.642Z,17.2
2023-02-19T12:55:40.833Z,17.2
2023-02-19T12:56:56.027Z,17.2
2023-02-19T12:58:12.223Z,17.1
2023-02-19T12:59:28.406Z,17.1
2023-02-19T13:00:44.215Z,17
2023-02-19T13:01:59.435Z,17.1
2023-02-19T13:03:15.002Z,17
2023-02-19T13:04:31.193Z,17
2023-02-19T13:05:46.402Z,17
2023-02-19T13:07:01.619Z,16.9
2023-02-19T13:08:17.800Z,16.9
2023-02-19T13:09:33.979Z,16.9
2023-02-19T13:10:49.799Z,16.9
2023-02-19T13:12:06.366Z,16.9
2023-02-19T13:13:22.550Z,16.9
2023-02-19T13:14:38.730Z,16.9
2023-02-19T13:15:54.552Z,16.9
2023-02-19T13:17:11.114Z,16.9
2023-02-19T13:18:27.291Z,16.9
2023-02-19T13:19:43.490Z,16.9
2023-02-19T13:20:59.679Z,16.9
2023-02-19T13:22:15.851Z,16.9
2023-02-19T13:23:31.064Z,16.9
2023-02-19T13:24:47.252Z,16.9
2023-02-19T13:26:03.446Z,16.8
2023-02-19T13:27:19.617Z,16.9
2023-02-19T13:28:35.814Z,16.9
2023-02-19T13:29:52.004Z,16.9
2023-02-19T13:31:08.184Z,16.9
2023-02-19T13:32:23.027Z,16.9
2023-02-19T13:33:38.614Z,16.9
2023-02-19T13:34:54.792Z,16.9
2023-02-19T13:36:10.012Z,16.8
2023-02-19T13:37:25.203Z,16.8
2023-02-19T13:38:41.391Z,16.8
2023-02-19T13:39:57.578Z,16.9
2023-02-19T13:41:13.389Z,16.8
2023-02-19T13:42:29.952Z,16.9
2023-02-19T13:43:46.149Z,16.9
2023-02-19T13:45:01.949Z,16.9
2023-02-19T13:46:18.519Z,16.9
2023-02-19T13:47:34.716Z,16.8
2023-02-19T13:48:50.892Z,16.8
2023-02-19T13:50:07.093Z,16.8
2023-02-19T13:51:23.268Z,16.8
2023-02-19T13:52:39.465Z,16.8
2023-02-19T13:53:54.266Z,16.8
2023-02-19T13:55:10.869Z,16.9
2023-02-19T13:56:26.642Z,16.9
2023-02-19T13:57:42.824Z,16.9
2023-02-19T13:58:59.412Z,16.9
2023-02-19T14:00:15.594Z,16.9
2023-02-19T14:01:31.399Z,16.9
2023-02-19T14:02:46.611Z,16.9
2023-02-19T14:04:02.207Z,16.9
2023-02-19T14:05:18.397Z,16.9
2023-02-19T14:06:33.220Z,16.9
2023-02-19T14:07:48.817Z,16.9
2023-02-19T14:09:04.596Z,16.9
2023-02-19T14:10:21.191Z,16.9
2023-02-19T14:11:37.377Z,16.8
2023-02-19T14:12:53.559Z,16.8
2023-02-19T14:14:09.736Z,16.7
2023-02-19T14:15:25.938Z,16.7
2023-02-19T14:16:41.717Z,16.7
2023-02-19T14:17:58.305Z,16.7
2023-02-19T14:19:14.103Z,16.6
2023-02-19T14:20:30.684Z,16.7
2023-02-19T14:21:46.876Z,16.6
2023-02-19T14:23:02.653Z,16.6
2023-02-19T14:24:18.257Z,16.6
2023-02-19T14:25:34.451Z,16.6
2023-02-19T14:26:50.632Z,16.6
2023-02-19T14:28:06.821Z,16.6
2023-02-19T14:29:23.015Z,16.6
2023-02-19T14:30:39.206Z,16.6
2023-02-19T14:31:54.991Z,16.6
2023-02-19T14:33:10.596Z,16.7
2023-02-19T14:34:25.811Z,16.6
2023-02-19T14:35:41.601Z,16.6
2023-02-19T14:36:57.770Z,16.6
2023-02-19T14:38:13.383Z,16.7
2023-02-19T14:39:28.596Z,16.6
2023-02-19T14:40:44.778Z,16.7
2023-02-19T14:42:00.963Z,16.7
2023-02-19T14:43:17.152Z,16.7
2023-02-19T14:44:33.352Z,16.6
2023-02-19T14:45:49.524Z,16.6
2023-02-19T14:47:05.311Z,16.6
2023-02-19T14:48:21.497Z,16.6
2023-02-19T14:49:38.102Z,16.6
2023-02-19T14:50:54.274Z,16.6
2023-02-19T14:52:10.471Z,16.6
2023-02-19T14:53:26.664Z,16.6
2023-02-19T14:54:42.854Z,16.6
2023-02-19T14:55:57.887Z,16.6
2023-02-19T14:57:14.000Z,16.6
2023-02-19T14:58:30.419Z,16.6
2023-02-19T14:59:46.619Z,16.6
2023-02-19T15:01:02.638Z,16.6
2023-02-19T15:02:18.995Z,16.6
2023-02-19T15:03:35.164Z,16.6
2023-02-19T15:04:50.233Z,16.6
2023-02-19T15:06:05.596Z,16.6
2023-02-19T15:07:20.659Z,16.6
2023-02-19T15:08:36.009Z,16.6
2023-02-19T15:09:52.032Z,16.6
2023-02-19T15:11:08.215Z,16.6
2023-02-19T15:12:24.575Z,16.6
2023-02-19T15:13:40.600Z,16.6
2023-02-19T15:14:56.788Z,16.6
2023-02-19T15:16:13.128Z,16.5
2023-02-19T15:17:29.312Z,16.5
2023-02-19T15:18:45.509Z,16.5
2023-02-19T15:20:01.712Z,16.4
2023-02-19T15:21:17.890Z,16.4
2023-02-19T15:22:34.061Z,16.4
2023-02-19T15:23:50.101Z,16.4
2023-02-19T15:25:05.309Z,16.4
2023-02-19T15:26:21.488Z,16.4
2023-02-19T15:27:37.669Z,16.4
2023-02-19T15:28:54.019Z,16.4
2023-02-19T15:30:10.217Z,16.4
2023-02-19T15:31:26.396Z,16.3
2023-02-19T15:32:42.581Z,16.3
2023-02-19T15:33:57.800Z,16.3
2023-02-19T15:35:13.013Z,16.3
2023-02-19T15:36:29.192Z,16.3
2023-02-19T15:37:45.379Z,16.3
2023-02-19T15:39:01.586Z,16.3
2023-02-19T15:40:17.763Z,16.3
2023-02-19T15:41:33.783Z,16.3
2023-02-19T15:42:50.149Z,16.3
2023-02-19T15:44:06.332Z,16.3
2023-02-19T15:45:22.531Z,16.3
2023-02-19T15:46:38.703Z,16.3
2023-02-19T15:47:54.736Z,16.2
2023-02-19T15:49:10.931Z,16.2
2023-02-19T15:50:27.268Z,16.2
2023-02-19T15:51:42.317Z,16.2
2023-02-19T15:52:58.665Z,16.2
2023-02-19T15:54:14.856Z,16.2
2023-02-19T15:55:31.044Z,16.2
2023-02-19T15:56:47.071Z,16.2
2023-02-19T15:58:03.424Z,16.2
2023-02-19T15:59:19.610Z,16.2
2023-02-19T16:00:34.825Z,16.2
2023-02-19T16:01:50.048Z,16.2
2023-02-19T16:03:05.078Z,16.1
2023-02-19T16:04:20.302Z,16.1
2023-02-19T16:05:36.645Z,16.1
2023-02-19T16:06:52.833Z,16.1
2023-02-19T16:08:08.056Z,16.1
2023-02-19T16:09:23.256Z,16.1
2023-02-19T16:10:39.457Z,16.1
2023-02-19T16:11:55.639Z,16.1
2023-02-19T16:13:11.830Z,16.1
2023-02-19T16:14:28.011Z,16.1
2023-02-19T16:15:44.205Z,16.1
2023-02-19T16:17:00.387Z,16.1
2023-02-19T16:18:16.402Z,16.1
2023-02-19T16:19:32.598Z,16.1
2023-02-19T16:20:48.965Z,16
2023-02-19T16:22:05.154Z,16
2023-02-19T16:23:21.336Z,16
2023-02-19T16:24:37.361Z,16
2023-02-19T16:25:52.737Z,16
2023-02-19T16:27:08.914Z,16
2023-02-19T16:28:25.113Z,16
2023-02-19T16:29:41.302Z,16
2023-02-19T16:30:57.497Z,16
2023-02-19T16:32:13.673Z,16
2023-02-19T16:33:29.874Z,16
2023-02-19T16:34:45.077Z,16
2023-02-19T16:36:00.116Z,15.9
2023-02-19T16:37:15.508Z,15.9
2023-02-19T16:38:30.527Z,15.9
2023-02-19T16:39:46.906Z,15.9
2023-02-19T16:41:02.904Z,15.9
2023-02-19T16:42:19.273Z,15.9
2023-02-19T16:43:35.458Z,15.9
2023-02-19T16:44:51.650Z,15.9
2023-02-19T16:46:07.852Z,15.9
2023-02-19T16:47:24.035Z,15.9
2023-02-19T16:48:40.231Z,15.9
2023-02-19T16:49:56.421Z,15.9
2023-02-19T16:51:12.610Z,15.9
2023-02-19T16:52:28.788Z,15.9
2023-02-19T16:53:44.812Z,15.9